createdAt,value
2023-02-19T00:01:36.659Z,100.00
2023-02-19T00:04:07.463Z,100.00
2023-02-19T00:06:35.517Z,100.00
2023-02-19T00:09:03.264Z,100.00
2023-02-19T00:11:32.145Z,100.00
2023-02-19T00:14:00.289Z,100.00
2023-02-19T00:16:32.329Z,100.00
2023-02-19T00:19:00.248Z,100.00
2023-02-19T00:21:28.373Z,100.00
2023-02-19T00:23:58.336Z,100.00
2023-02-19T00:26:26.366Z,100.00
2023-02-19T00:28:54.112Z,100.00
2023-02-19T00:31:29.915Z,100.00
2023-02-19T00:33:59.693Z,100.00
2023-02-19T00:36:27.684Z,100.00
2023-02-19T00:38:54.714Z,100.00
2023-02-19T00:41:23.304Z,100.00
2023-02-19T00:43:54.203Z,100.00
2023-02-19T00:46:26.706Z,100.00
2023-02-19T00:48:56.282Z,100.00
2023-02-19T00:51:25.670Z,100.00
2023-02-19T00:53:53.694Z,100.00
2023-02-19T00:56:20.698Z,100.00
2023-02-19T00:58:48.952Z,100.00
2023-02-19T01:01:16.766Z,100.00
2023-02-19T01:03:43.554Z,100.00
2023-02-19T01:06:11.954Z,100.00
2023-02-19T01:08:39.102Z,100.00
2023-02-19T01:11:08.100Z,100.00
2023-02-19T01:13:35.861Z,100.00
2023-02-19T01:16:08.712Z,100.00
2023-02-19T01:18:35.993Z,100.00
2023-02-19T01:21:13.819Z,100.00
2023-02-19T01:23:40.872Z,100.00
2023-02-19T01:26:09.749Z,100.00
2023-02-19T01:28:36.538Z,100.00
2023-02-19T01:31:04.439Z,100.00
2023-02-19T01:33:31.992Z,100.00
2023-02-19T01:35:59.196Z,100.00
2023-02-19T01:38:26.333Z,100.00
2023-02-19T01:40:57.236Z,100.00
2023-02-19T01:43:24.600Z,100.00
2023-02-19T01:45:51.334Z,100.00
2023-02-19T01:48:26.493Z,100.00
2023-02-19T01:51:17.282Z,100.00
2023-02-19T01:53:47.829Z,100.00
2023-02-19T01:56:17.976Z,100.00
2023-02-19T01:58:46.306Z,100.00
2023-02-19T02:01:13.639Z,100.00
2023-02-19T02:03:45.237Z,100.00
2023-02-19T02:06:28.535Z,100.00
2023-02-19T02:09:15.546Z,100.00
2023-02-19T02:12:00.098Z,100.00
2023-02-19T02:14:31.003Z,100.00
2023-02-19T02:17:04.677Z,100.00
2023-02-19T02:19:43.491Z,100.00
2023-02-19T02:22:31.404Z,100.00
2023-02-19T02:25:16.087Z,100.00
2023-02-19T02:27:56.415Z,100.00
2023-02-19T02:30:33.352Z,100.00
2023-02-19T02:33:12.656Z,100.00
2023-02-19T02:36:03.469Z,100.00
2023-02-19T02:38:33.133Z,100.00
2023-02-19T02:41:00.410Z,100.00
2023-02-19T02:43:27.168Z,100.00
2023-02-19T02:45:53.946Z,100.00
2023-02-19T02:48:27.007Z,100.00
2023-02-19T02:51:05.187Z,100.00
2023-02-19T02:54:24.476Z,100.00
2023-02-19T02:56:52.682Z,100.00
2023-02-19T02:59:26.409Z,100.00
2023-02-19T03:02:14.597Z,100.00
2023-02-19T03:05:01.261Z,100.00
2023-02-19T03:07:35.055Z,100.00
2023-02-19T03:10:05.121Z,100.00
2023-02-19T03:12:54.388Z,100.00
2023-02-19T03:15:43.438Z,100.00
2023-02-19T03:18:32.866Z,100.00
2023-02-19T03:21:02.489Z,100.00
2023-02-19T03:23:51.502Z,100.00
2023-02-19T03:26:19.589Z,100.00
2023-02-19T03:29:08.874Z,100.00
2023-02-19T03:31:40.516Z,100.00
2023-02-19T03:34:14.405Z,100.00
2023-02-19T03:36:46.101Z,100.00
2023-02-19T03:39:17.496Z,100.00
2023-02-19T03:42:00.233Z,100.00
2023-02-19T03:44:45.546Z,100.00
2023-02-19T03:47:15.087Z,100.00
2023-02-19T03:49:49.165Z,100.00
2023-02-19T03:52:49.420Z,100.00
2023-02-19T03:55:33.511Z,100.00
2023-02-19T03:58:23.924Z,100.00
2023-02-19T04:00:58.727Z,100.00
2023-02-19T04:03:25.243Z,100.00
2023-02-19T04:06:15.901Z,100.00
2023-02-19T04:08:48.517Z,100.00
2023-02-19T04:11:17.054Z,100.00
2023-02-19T04:14:01.626Z,100.00
2023-02-19T04:16:29.850Z,100.00
2023-02-19T04:19:05.354Z,100.00
2023-02-19T04:21:35.132Z,100.00
2023-02-19T04:24:07.568Z,100.00
2023-02-19T04:26:35.672Z,100.00
2023-02-19T04:29:02.407Z,100.00
2023-02-19T04:31:31.346Z,100.00
2023-02-19T04:33:58.136Z,100.00
2023-02-19T04:36:24.753Z,100.00
2023-02-19T04:38:51.465Z,100.00
2023-02-19T04:41:18.131Z,100.00
2023-02-19T04:43:44.787Z,100.00
2023-02-19T04:46:11.463Z,100.00
2023-02-19T04:48:38.205Z,100.00
2023-02-19T04:51:06.842Z,100.00
2023-02-19T04:53:34.628Z,100.00
2023-02-19T04:56:12.852Z,100.00
2023-02-19T04:58:40.865Z,100.00
2023-02-19T05:01:08.634Z,100.00
2023-02-19T05:03:35.704Z,100.00
2023-02-19T05:06:08.371Z,100.00
2023-02-19T05:08:36.331Z,100.00
2023-02-19T05:11:05.267Z,100.00
2023-02-19T05:13:32.439Z,100.00
2023-02-19T05:16:04.964Z,100.00
2023-02-19T05:18:32.504Z,100.00
2023-02-19T05:20:59.759Z,100.00
2023-02-19T05:23:27.815Z,100.00
2023-02-19T05:25:54.545Z,100.00
2023-02-19T05:28:28.636Z,100.00
2023-02-19T05:30:56.995Z,100.00
2023-02-19T05:33:26.050Z,100.00
2023-02-19T05:35:55.615Z,100.00
2023-02-19T05:38:23.743Z,100.00
2023-02-19T05:40:51.150Z,100.00
2023-02-19T05:43:18.284Z,100.00
2023-02-19T05:45:45.011Z,100.00
2023-02-19T05:48:12.361Z,100.00
2023-02-19T05:50:40.000Z,100.00
2023-02-19T05:53:07.063Z,100.00
2023-02-19T05:55:36.228Z,100.00
2023-02-19T05:58:03.189Z,100.00
2023-02-19T06:00:30.209Z,100.00
2023-02-19T06:02:56.846Z,100.00
2023-02-19T06:05:23.850Z,100.00
2023-02-19T06:07:50.688Z,100.00
2023-02-19T06:10:18.309Z,100.00
2023-02-19T06:12:46.037Z,100.00
2023-02-19T06:15:12.688Z,100.00
2023-02-19T06:17:39.619Z,100.00
2023-02-19T06:20:06.824Z,100.00
2023-02-19T06:22:33.503Z,100.00
2023-02-19T06:25:00.179Z,100.00
2023-02-19T06:27:27.054Z,100.00
2023-02-19T06:29:53.880Z,100.00
2023-02-19T06:32:20.870Z,100.00
2023-02-19T06:34:47.721Z,100.00
2023-02-19T06:37:14.449Z,100.00
2023-02-19T06:39:41.561Z,100.00
2023-02-19T06:42:08.236Z,100.00
2023-02-19T06:44:35.134Z,100.00
2023-02-19T06:47:01.831Z,100.00
2023-02-19T06:49:28.714Z,100.00
2023-02-19T06:51:55.640Z,100.00
2023-02-19T06:54:22.327Z,90.70
2023-02-19T06:56:49.087Z,87.18
2023-02-19T06:59:19.653Z,82.84
2023-02-19T07:01:46.577Z,82.88
2023-02-19T07:04:13.733Z,82.59
2023-02-19T07:06:40.603Z,73.78
2023-02-19T07:09:08.543Z,71.26
2023-02-19T07:11:37.962Z,78.56
2023-02-19T07:14:10.150Z,75.81
2023-02-19T07:16:37.141Z,71.37
2023-02-19T07:19:04.127Z,71.63
2023-02-19T07:21:30.990Z,66.56
2023-02-19T07:23:58.302Z,71.19
2023-02-19T07:26:25.339Z,79.07
2023-02-19T07:28:52.586Z,68.44
2023-02-19T07:31:21.005Z,61.01
2023-02-19T07:33:48.478Z,57.15
2023-02-19T07:36:17.844Z,56.63
2023-02-19T07:38:45.701Z,57.63
2023-02-19T07:41:13.337Z,52.29
2023-02-19T07:43:40.818Z,51.38
2023-02-19T07:46:13.623Z,51.14
2023-02-19T07:48:42.138Z,49.97
2023-02-19T07:51:13.343Z,50.53
2023-02-19T07:53:40.283Z,50.87
2023-02-19T07:56:08.498Z,50.35
2023-02-19T07:58:35.925Z,48.60
2023-02-19T08:01:15.908Z,48.44
2023-02-19T08:03:44.027Z,46.35
2023-02-19T08:06:12.047Z,44.39
2023-02-19T08:08:39.755Z,42.81
2023-02-19T08:11:25.572Z,41.10
2023-02-19T08:13:53.597Z,41.28
2023-02-19T08:16:33.246Z,40.55
2023-02-19T08:19:07.404Z,38.93
2023-02-19T08:21:34.532Z,37.65
2023-02-19T08:24:01.221Z,36.83
2023-02-19T08:26:27.951Z,41.48
2023-02-19T08:28:54.709Z,40.40
2023-02-19T08:31:21.477Z,39.67
2023-02-19T08:33:48.248Z,40.39
2023-02-19T08:36:15.065Z,36.47
2023-02-19T08:38:41.757Z,36.26
2023-02-19T08:41:11.470Z,34.86
2023-02-19T08:43:39.124Z,35.55
2023-02-19T08:46:07.283Z,36.01
2023-02-19T08:48:34.190Z,35.67
2023-02-19T08:51:04.243Z,34.75
2023-02-19T08:53:32.380Z,34.57
2023-02-19T08:55:59.322Z,32.73
2023-02-19T08:58:26.371Z,32.78
2023-02-19T09:00:53.313Z,32.23
2023-02-19T09:03:20.115Z,33.60
2023-02-19T09:05:47.001Z,33.87
2023-02-19T09:08:13.771Z,33.17
2023-02-19T09:10:40.592Z,32.12
2023-02-19T09:13:07.385Z,31.38
2023-02-19T09:15:34.137Z,31.91
2023-02-19T09:18:00.899Z,32.61
2023-02-19T09:20:27.596Z,32.26
2023-02-19T09:22:58.805Z,32.62
2023-02-19T09:25:26.111Z,30.72
2023-02-19T09:27:56.385Z,32.56
2023-02-19T09:30:23.235Z,31.65
2023-02-19T09:32:50.266Z,32.52
2023-02-19T09:35:16.975Z,32.24
2023-02-19T09:37:43.660Z,31.88
2023-02-19T09:40:21.828Z,31.57
2023-02-19T09:42:50.098Z,30.88
2023-02-19T09:45:23.333Z,32.02
2023-02-19T09:47:55.747Z,31.71
2023-02-19T09:50:36.297Z,31.46
2023-02-19T09:53:11.388Z,30.58
2023-02-19T09:55:42.653Z,31.32
2023-02-19T09:58:25.793Z,30.07
2023-02-19T10:00:54.507Z,30.86
2023-02-19T10:03:33.750Z,31.23
2023-02-19T10:06:23.604Z,30.10
2023-02-19T10:08:54.284Z,29.12
2023-02-19T10:11:22.563Z,31.12
2023-02-19T10:13:54.500Z,29.69
2023-02-19T10:16:26.679Z,30.15
2023-02-19T10:18:53.743Z,29.20
2023-02-19T10:21:25.808Z,29.85
2023-02-19T10:23:57.014Z,28.66
2023-02-19T10:26:24.372Z,27.75
2023-02-19T10:28:51.208Z,27.97
2023-02-19T10:31:24.262Z,28.93
2023-02-19T10:33:56.152Z,27.77
2023-02-19T10:36:39.616Z,28.32
2023-02-19T10:39:21.610Z,27.68
2023-02-19T10:41:51.877Z,28.20
2023-02-19T10:44:24.305Z,28.22
2023-02-19T10:46:55.420Z,31.21
2023-02-19T10:49:33.390Z,29.16
2023-02-19T10:52:10.879Z,29.16
2023-02-19T10:54:37.704Z,30.73
2023-02-19T10:57:30.117Z,29.50
2023-02-19T11:00:22.907Z,30.75
2023-02-19T11:02:49.653Z,31.11
2023-02-19T11:05:20.150Z,32.48
2023-02-19T11:08:05.196Z,33.24
2023-02-19T11:10:42.375Z,33.28
2023-02-19T11:13:16.471Z,33.68
2023-02-19T11:15:43.941Z,34.13
2023-02-19T11:18:13.656Z,34.22
2023-02-19T11:21:00.630Z,34.48
2023-02-19T11:23:27.320Z,34.04
2023-02-19T11:25:57.501Z,32.60
2023-02-19T11:28:33.377Z,32.77
2023-02-19T11:31:36.301Z,32.32
2023-02-19T11:34:29.988Z,31.57
2023-02-19T11:37:13.609Z,32.28
2023-02-19T11:39:45.580Z,32.06
2023-02-19T11:42:30.396Z,31.76
2023-02-19T11:45:00.154Z,32.50
2023-02-19T11:48:00.730Z,32.15
2023-02-19T11:50:29.548Z,32.70
2023-02-19T11:53:13.821Z,34.20
2023-02-19T11:56:08.124Z,34.61
2023-02-19T11:59:01.312Z,35.48
2023-02-19T12:01:37.119Z,34.24
2023-02-19T12:04:28.341Z,34.77
2023-02-19T12:07:01.008Z,34.93
2023-02-19T12:09:27.658Z,34.74
2023-02-19T12:12:25.426Z,34.52
2023-02-19T12:15:16.791Z,34.56
2023-02-19T12:18:04.131Z,33.75
2023-02-19T12:20:42.159Z,33.65
2023-02-19T12:23:36.843Z,33.00
2023-02-19T12:26:44.396Z,34.06
2023-02-19T12:29:11.046Z,33.83
2023-02-19T12:31:57.958Z,33.42
2023-02-19T12:34:43.057Z,32.87
2023-02-19T12:37:12.832Z,33.52
2023-02-19T12:39:56.643Z,34.10
2023-02-19T12:42:52.527Z,34.17
2023-02-19T12:45:33.458Z,35.42
2023-02-19T12:48:15.149Z,34.68
2023-02-19T12:50:45.387Z,34.77
2023-02-19T12:53:27.194Z,34.87
2023-02-19T12:55:56.073Z,35.49
2023-02-19T12:58:44.668Z,35.70
2023-02-19T13:01:18.675Z,37.12
2023-02-19T13:03:57.400Z,35.72
2023-02-19T13:06:38.025Z,35.90
2023-02-19T13:09:20.392Z,36.32
2023-02-19T13:11:53.198Z,36.70
2023-02-19T13:14:37.128Z,36.52
2023-02-19T13:17:21.391Z,36.83
2023-02-19T13:19:52.332Z,36.68
2023-02-19T13:22:45.907Z,37.70
2023-02-19T13:25:14.979Z,36.79
2023-02-19T13:28:05.235Z,37.39
2023-02-19T13:30:43.740Z,37.20
2023-02-19T13:33:16.118Z,37.83
2023-02-19T13:36:05.893Z,37.87
2023-02-19T13:38:45.270Z,37.60
2023-02-19T13:41:28.156Z,38.63
2023-02-19T13:44:02.415Z,37.58
2023-02-19T13:46:44.029Z,37.34
2023-02-19T13:49:33.918Z,37.97
2023-02-19T13:52:29.480Z,38.45
2023-02-19T13:55:33.791Z,38.58
2023-02-19T13:58:35.522Z,39.15
2023-02-19T14:01:10.023Z,37.76
2023-02-19T14:03:40.128Z,38.32
2023-02-19T14:06:10.284Z,38.40
2023-02-19T14:08:51.093Z,39.34
2023-02-19T14:11:37.971Z,39.53
2023-02-19T14:14:09.630Z,39.40
2023-02-19T14:16:55.425Z,39.94
2023-02-19T14:19:47.451Z,39.48
2023-02-19T14:22:57.041Z,39.31
2023-02-19T14:25:29.650Z,39.89
2023-02-19T14:28:30.227Z,40.47
2023-02-19T14:31:29.379Z,40.04
2023-02-19T14:34:00.552Z,41.16
2023-02-19T14:36:44.372Z,41.50
2023-02-19T14:39:23.344Z,41.42
2023-02-19T14:41:53.403Z,41.57
2023-02-19T14:44:31.031Z,42.24
2023-02-19T14:47:09.680Z,42.28
2023-02-19T14:49:47.741Z,41.72
2023-02-19T14:52:34.544Z,41.54
2023-02-19T14:55:08.456Z,42.07
2023-02-19T14:57:47.436Z,41.55
2023-02-19T15:00:37.092Z,41.01
2023-02-19T15:03:05.834Z,42.55
2023-02-19T15:05:36.744Z,43.45
2023-02-19T15:08:09.100Z,43.61
2023-02-19T15:10:36.868Z,44.63
2023-02-19T15:13:06.386Z,42.16
2023-02-19T15:15:37.594Z,43.82
2023-02-19T15:18:05.485Z,44.69
2023-02-19T15:20:37.776Z,44.50
2023-02-19T15:23:21.322Z,45.01
2023-02-19T15:25:49.579Z,45.98
2023-02-19T15:28:25.987Z,46.21
2023-02-19T15:30:58.858Z,45.85
2023-02-19T15:33:27.444Z,46.02
2023-02-19T15:35:56.992Z,46.74
2023-02-19T15:38:24.508Z,45.86
2023-02-19T15:40:51.812Z,46.96
2023-02-19T15:43:54.257Z,46.44
2023-02-19T15:46:23.417Z,47.03
2023-02-19T15:49:37.934Z,47.26
2023-02-19T15:52:10.714Z,48.63
2023-02-19T15:54:58.864Z,48.19
2023-02-19T15:57:31.582Z,49.10
2023-02-19T16:00:13.363Z,50.40
2023-02-19T16:02:40.624Z,50.68
2023-02-19T16:05:25.294Z,50.50
2023-02-19T16:08:08.488Z,51.62
2023-02-19T16:10:35.304Z,50.91
2023-02-19T16:13:03.792Z,51.08
2023-02-19T16:15:32.765Z,52.01
2023-02-19T16:17:59.959Z,51.75
2023-02-19T16:20:29.882Z,54.08
2023-02-19T16:23:03.255Z,55.00
2023-02-19T16:25:40.940Z,55.06
2023-02-19T16:28:37.586Z,55.32
2023-02-19T16:31:09.471Z,56.26
2023-02-19T16:33:39.945Z,57.21
2023-02-19T16:36:35.642Z,59.87
2023-02-19T16:39:08.479Z,62.39
2023-02-19T16:41:41.334Z,61.98
2023-02-19T16:44:32.580Z,62.62
2023-02-19T16:47:03.834Z,60.37
2023-02-19T16:49:31.013Z,61.00
2023-02-19T16:51:59.821Z,61.34
2023-02-19T16:54:26.703Z,66.02
2023-02-19T16:56:53.419Z,77.50
2023-02-19T16:59:20.504Z,70.61
2023-02-19T17:01:47.331Z,78.07
2023-02-19T17:04:15.964Z,89.54
2023-02-19T17:06:43.271Z,85.03
2023-02-19T17:09:10.220Z,84.48
2023-02-19T17:11:37.106Z,87.40
2023-02-19T17:14:03.860Z,94.20
2023-02-19T17:16:39.750Z,97.24
2023-02-19T17:19:13.539Z,95.21
2023-02-19T17:21:40.356Z,100.00
2023-02-19T17:24:07.184Z,100.00
2023-02-19T17:26:34.527Z,99.03
2023-02-19T17:29:04.441Z,100.00
2023-02-19T17:31:33.854Z,100.00
2023-02-19T17:34:00.942Z,100.00
2023-02-19T17:36:32.461Z,100.00
2023-02-19T17:39:00.421Z,100.00
2023-02-19T17:41:28.810Z,100.00
2023-02-19T17:43:55.561Z,100.00
2023-02-19T17:46:25.799Z,100.00
2023-02-19T17:48:53.915Z,100.00
2023-02-19T17:51:21.489Z,100.00
2023-02-19T17:53:48.275Z,100.00
2023-02-19T17:56:21.004Z,100.00
2023-02-19T17:58:47.763Z,100.00
2023-02-19T18:01:15.126Z,100.00
2023-02-19T18:03:43.155Z,100.00
2023-02-19T18:06:09.848Z,100.00
2023-02-19T18:08:36.579Z,100.00
2023-02-19T18:11:03.945Z,100.00
2023-02-19T18:13:30.577Z,100.00
2023-02-19T18:15:58.099Z,100.00
2023-02-19T18:18:24.822Z,100.00
2023-02-19T18:20:51.526Z,100.00
2023-02-19T18:23:20.556Z,100.00
2023-02-19T18:25:47.483Z,100.00
2023-02-19T18:28:15.023Z,100.00
2023-02-19T18:30:42.192Z,100.00
2023-02-19T18:33:13.350Z,100.00
2023-02-19T18:35:40.198Z,100.00
2023-02-19T18:38:06.878Z,100.00
2023-02-19T18:40:33.732Z,100.00
2023-02-19T18:43:01.827Z,100.00
2023-02-19T18:45:29.795Z,100.00
2023-02-19T18:47:56.588Z,100.00
2023-02-19T18:50:23.384Z,100.00
2023-02-19T18:52:50.210Z,100.00
2023-02-19T18:55:16.875Z,100.00
2023-02-19T18:57:44.370Z,100.00
2023-02-19T19:00:15.832Z,100.00
2023-02-19T19:02:49.112Z,100.00
2023-02-19T19:05:23.009Z,100.00
2023-02-19T19:07:51.928Z,100.00
2023-02-19T19:10:19.254Z,100.00
2023-02-19T19:12:46.243Z,100.00
2023-02-19T19:15:12.977Z,100.00
2023-02-19T19:17:41.161Z,100.00
2023-02-19T19:20:09.170Z,100.00
2023-02-19T19:22:35.861Z,100.00
2023-02-19T19:25:02.882Z,100.00
2023-02-19T19:27:29.552Z,100.00
2023-02-19T19:29:56.354Z,100.00
2023-02-19T19:32:23.276Z,100.00
2023-02-19T19:34:49.984Z,100.00
2023-02-19T19:37:16.823Z,100.00
2023-02-19T19:39:43.960Z,100.00
2023-02-19T19:42:10.748Z,100.00
2023-02-19T19:44:37.439Z,100.00
2023-02-19T19:47:04.413Z,100.00
2023-02-19T19:49:31.093Z,100.00
2023-02-19T19:52:01.135Z,100.00
2023-02-19T19:54:28.814Z,100.00
2023-02-19T19:56:55.769Z,100.00
2023-02-19T19:59:23.176Z,100.00
2023-02-19T20:01:57.124Z,100.00
2023-02-19T20:04:25.308Z,100.00
2023-02-19T20:06:52.102Z,100.00
2023-02-19T20:09:19.764Z,100.00
2023-02-19T20:11:48.801Z,100.00
2023-02-19T20:14:16.817Z,100.00
2023-02-19T20:16:44.907Z,100.00
2023-02-19T20:19:11.912Z,100.00
2023-02-19T20:21:38.638Z,100.00
2023-02-19T20:24:05.732Z,100.00
2023-02-19T20:26:32.717Z,100.00
2023-02-19T20:28:59.494Z,100.00
2023-02-19T20:31:26.791Z,100.00
2023-02-19T20:33:53.614Z,100.00
2023-02-19T20:36:20.877Z,100.00
2023-02-19T20:38:49.823Z,100.00
2023-02-19T20:41:16.710Z,100.00
2023-02-19T20:43:43.383Z,100.00
2023-02-19T20:46:10.995Z,100.00
2023-02-19T20:48:38.118Z,100.00
2023-02-19T20:51:05.088Z,100.00
2023-02-19T20:53:32.224Z,100.00
2023-02-19T20:55:59.380Z,100.00
2023-02-19T20:58:26.672Z,100.00
2023-02-19T21:00:54.357Z,100.00
2023-02-19T21:03:21.542Z,100.00
2023-02-19T21:05:48.437Z,100.00
2023-02-19T21:08:17.339Z,100.00
2023-02-19T21:10:46.097Z,100.00
2023-02-19T21:13:13.944Z,100.00
2023-02-19T21:15:40.837Z,100.00
2023-02-19T21:18:08.700Z,100.00
2023-02-19T21:20:35.402Z,100.00
2023-02-19T21:23:02.338Z,100.00
2023-02-19T21:25:31.436Z,100.00
2023-02-19T21:27:58.138Z,100.00
2023-02-19T21:30:24.873Z,100.00
2023-02-19T21:32:51.638Z,100.00
2023-02-19T21:35:18.391Z,100.00
2023-02-19T21:37:45.089Z,100.00
2023-02-19T21:40:13.058Z,100.00
2023-02-19T21:42:39.932Z,100.00
2023-02-19T21:45:07.145Z,100.00
2023-02-19T21:47:33.819Z,100.00
2023-02-19T21:50:00.525Z,100.00
2023-02-19T21:52:27.220Z,100.00
2023-02-19T21:54:53.905Z,100.00
2023-02-19T21:57:20.543Z,100.00
2023-02-19T21:59:47.247Z,100.00
2023-02-19T22:02:14.629Z,100.00
2023-02-19T22:04:41.453Z,100.00
2023-02-19T22:07:08.166Z,100.00
2023-02-19T22:09:34.861Z,100.00
2023-02-19T22:12:01.491Z,100.00
2023-02-19T22:14:28.200Z,100.00
2023-02-19T22:16:54.960Z,100.00
2023-02-19T22:19:21.758Z,100.00
2023-02-19T22:21:48.517Z,100.00
2023-02-19T22:24:21.522Z,100.00
2023-02-19T22:26:50.625Z,100.00
2023-02-19T22:29:17.776Z,100.00
2023-02-19T22:31:44.742Z,100.00
2023-02-19T22:34:12.947Z,100.00
2023-02-19T22:36:40.538Z,100.00
2023-02-19T22:39:08.662Z,100.00
2023-02-19T22:41:35.328Z,100.00
2023-02-19T22:44:02.453Z,100.00
2023-02-19T22:46:30.770Z,100.00
2023-02-19T22:48:58.344Z,100.00
2023-02-19T22:51:25.594Z,100.00
2023-02-19T22:53:55.239Z,100.00
2023-02-19T22:56:24.586Z,100.00
2023-02-19T22:58:51.699Z,100.00
2023-02-19T23:01:18.514Z,100.00
2023-02-19T23:03:57.225Z,100.00
2023-02-19T23:06:25.573Z,100.00
2023-02-19T23:08:53.411Z,100.00
2023-02-19T23:11:24.951Z,100.00
2023-02-19T23:13:51.832Z,100.00
2023-02-19T23:16:18.539Z,100.00
2023-02-19T23:18:45.351Z,100.00
2023-02-19T23:21:12.684Z,100.00
2023-02-19T23:23:43.284Z,100.00
2023-02-19T23:26:10.458Z,100.00
2023-02-19T23:28:39.785Z,100.00
2023-02-19T23:31:06.834Z,100.00
2023-02-19T23:33:33.806Z,100.00
2023-02-19T23:36:00.507Z,100.00
2023-02-19T23:38:27.538Z,100.00
2023-02-19T23:40:55.362Z,100.00
2023-02-19T23:43:22.083Z,100.00
2023-02-19T23:45:48.843Z,100.00
2023-02-19T23:48:15.611Z,100.00
2023-02-19T23:50:42.330Z,100.00
2023-02-19T23:53:09.079Z,100.00
2023-02-19T23:55:35.732Z,100.00
2023-02-19T23:58:02.369Z,100.00
